sensor_id;sensor_type;location;lat;lon;timestamp;temperature;humidity
46217;DHT22;47258;59.424;13.482;2023-07-28T00:02:13;11.10;99.90
46217;DHT22;47258;59.424;13.482;2023-07-28T00:04:40;11.10;99.90
46217;DHT22;47258;59.424;13.482;2023-07-28T00:07:07;11.10;99.90
46217;DHT22;47258;59.424;13.482;2023-07-28T00:09:34;11.10;99.90
46217;DHT22;47258;59.424;13.482;2023-07-28T00:12:01;11.10;99.90
46217;DHT22;47258;59.424;13.482;2023-07-28T00:14:30;11.10;99.90
46217;DHT22;47258;59.424;13.482;2023-07-28T00:16:57;11.10;99.90
46217;DHT22;47258;59.424;13.482;2023-07-28T00:19:24;11.10;99.90
46217;DHT22;47258;59.424;13.482;2023-07-28T00:21:52;11.00;99.90
46217;DHT22;47258;59.424;13.482;2023-07-28T00:24:22;11.00;99.90
46217;DHT22;47258;59.424;13.482;2023-07-28T00:26:49;11.00;99.90
46217;DHT22;47258;59.424;13.482;2023-07-28T00:29:16;10.90;99.90
46217;DHT22;47258;59.424;13.482;2023-07-28T00:31:44;10.90;99.90
46217;DHT22;47258;59.424;13.482;2023-07-28T00:34:11;10.80;99.90
46217;DHT22;47258;59.424;13.482;2023-07-28T00:36:38;10.80;99.90
46217;DHT22;47258;59.424;13.482;2023-07-28T00:39:06;10.80;99.90
46217;DHT22;47258;59.424;13.482;2023-07-28T00:41:33;10.80;99.90
46217;DHT22;47258;59.424;13.482;2023-07-28T00:44:00;10.80;99.90
46217;DHT22;47258;59.424;13.482;2023-07-28T00:46:27;10.70;99.90
46217;DHT22;47258;59.424;13.482;2023-07-28T00:48:56;10.70;99.90
46217;DHT22;47258;59.424;13.482;2023-07-28T00:51:23;10.70;99.90
46217;DHT22;47258;59.424;13.482;2023-07-28T00:53:50;10.70;99.90
46217;DHT22;47258;59.424;13.482;2023-07-28T00:56:19;10.60;99.90
46217;DHT22;47258;59.424;13.482;2023-07-28T00:58:47;10.60;99.90
46217;DHT22;47258;59.424;13.482;2023-07-28T01:01:15;10.50;99.90
46217;DHT22;47258;59.424;13.482;2023-07-28T01:03:42;10.50;99.90
46217;DHT22;47258;59.424;13.482;2023-07-28T01:06:14;10.50;99.90
46217;DHT22;47258;59.424;13.482;2023-07-28T01:08:48;10.50;99.90
46217;DHT22;47258;59.424;13.482;2023-07-28T01:11:16;10.50;99.90
46217;DHT22;47258;59.424;13.482;2023-07-28T01:13:43;10.50;99.90
46217;DHT22;47258;59.424;13.482;2023-07-28T01:16:10;10.40;99.90
46217;DHT22;47258;59.424;13.482;2023-07-28T01:18:37;10.50;99.90
46217;DHT22;47258;59.424;13.482;2023-07-28T01:21:08;10.50;99.90
46217;DHT22;47258;59.424;13.482;2023-07-28T01:23:44;10.50;99.90
46217;DHT22;47258;59.424;13.482;2023-07-28T01:26:15;10.50;99.90
46217;DHT22;47258;59.424;13.482;2023-07-28T01:28:44;10.50;99.90
46217;DHT22;47258;59.424;13.482;2023-07-28T01:31:12;10.50;99.90
46217;DHT22;47258;59.424;13.482;2023-07-28T01:33:39;10.40;99.90
46217;DHT22;47258;59.424;13.482;2023-07-28T01:36:06;10.30;99.90
46217;DHT22;47258;59.424;13.482;2023-07-28T01:38:33;10.20;99.90
46217;DHT22;47258;59.424;13.482;2023-07-28T01:41:00;10.20;99.90
46217;DHT22;47258;59.424;13.482;2023-07-28T01:43:27;10.20;99.90
46217;DHT22;47258;59.424;13.482;2023-07-28T01:45:56;10.20;99.90
46217;DHT22;47258;59.424;13.482;2023-07-28T01:48:23;10.30;99.90
46217;DHT22;47258;59.424;13.482;2023-07-28T01:50:50;10.20;99.90
46217;DHT22;47258;59.424;13.482;2023-07-28T01:53:17;10.20;99.90
46217;DHT22;47258;59.424;13.482;2023-07-28T01:55:44;10.10;99.90
46217;DHT22;47258;59.424;13.482;2023-07-28T01:58:11;10.10;99.90
46217;DHT22;47258;59.424;13.482;2023-07-28T02:00:38;10.10;99.90
46217;DHT22;47258;59.424;13.482;2023-07-28T02:03:06;10.00;99.90
46217;DHT22;47258;59.424;13.482;2023-07-28T02:05:33;10.00;99.90
46217;DHT22;47258;59.424;13.482;2023-07-28T02:08:00;9.90;99.90
46217;DHT22;47258;59.424;13.482;2023-07-28T02:10:28;9.90;99.90
46217;DHT22;47258;59.424;13.482;2023-07-28T02:12:55;9.90;99.90
46217;DHT22;47258;59.424;13.482;2023-07-28T02:15:22;9.90;99.90
46217;DHT22;47258;59.424;13.482;2023-07-28T02:17:50;9.80;99.90
46217;DHT22;47258;59.424;13.482;2023-07-28T02:20:18;9.80;99.90
46217;DHT22;47258;59.424;13.482;2023-07-28T02:22:45;9.70;99.90
46217;DHT22;47258;59.424;13.482;2023-07-28T02:25:12;9.80;99.90
46217;DHT22;47258;59.424;13.482;2023-07-28T02:27:39;9.80;99.90
46217;DHT22;47258;59.424;13.482;2023-07-28T02:30:07;9.80;99.90
46217;DHT22;47258;59.424;13.482;2023-07-28T02:32:34;9.80;99.90
46217;DHT22;47258;59.424;13.482;2023-07-28T02:35:01;9.80;99.90
46217;DHT22;47258;59.424;13.482;2023-07-28T02:37:30;9.80;99.90
46217;DHT22;47258;59.424;13.482;2023-07-28T02:39:57;9.70;99.90
46217;DHT22;47258;59.424;13.482;2023-07-28T02:42:24;9.70;99.90
46217;DHT22;47258;59.424;13.482;2023-07-28T02:44:51;9.70;99.90
46217;DHT22;47258;59.424;13.482;2023-07-28T02:47:18;9.70;99.90
46217;DHT22;47258;59.424;13.482;2023-07-28T02:49:45;9.70;99.90
46217;DHT22;47258;59.424;13.482;2023-07-28T02:52:12;9.70;99.90
46217;DHT22;47258;59.424;13.482;2023-07-28T02:54:41;9.70;99.90
46217;DHT22;47258;59.424;13.482;2023-07-28T02:57:08;9.70;99.90
46217;DHT22;47258;59.424;13.482;2023-07-28T02:59:35;9.80;99.90
46217;DHT22;47258;59.424;13.482;2023-07-28T03:02:02;9.80;99.90
46217;DHT22;47258;59.424;13.482;2023-07-28T03:04:29;9.80;99.90
46217;DHT22;47258;59.424;13.482;2023-07-28T03:06:56;9.80;99.90
46217;DHT22;47258;59.424;13.482;2023-07-28T03:09:23;9.80;99.90
46217;DHT22;47258;59.424;13.482;2023-07-28T03:11:52;9.80;99.90
46217;DHT22;47258;59.424;13.482;2023-07-28T03:14:19;9.90;99.90
46217;DHT22;47258;59.424;13.482;2023-07-28T03:16:46;9.90;99.90
46217;DHT22;47258;59.424;13.482;2023-07-28T03:19:13;9.90;99.90
46217;DHT22;47258;59.424;13.482;2023-07-28T03:21:40;9.90;99.90
46217;DHT22;47258;59.424;13.482;2023-07-28T03:24:07;9.80;99.90
46217;DHT22;47258;59.424;13.482;2023-07-28T03:26:34;9.80;99.90
46217;DHT22;47258;59.424;13.482;2023-07-28T03:29:02;9.80;99.90
46217;DHT22;47258;59.424;13.482;2023-07-28T03:31:29;9.80;99.90
46217;DHT22;47258;59.424;13.482;2023-07-28T03:33:57;9.80;99.90
46217;DHT22;47258;59.424;13.482;2023-07-28T03:36:24;9.90;99.90
46217;DHT22;47258;59.424;13.482;2023-07-28T03:38:51;9.90;99.90
46217;DHT22;47258;59.424;13.482;2023-07-28T03:41:18;10.00;99.90
46217;DHT22;47258;59.424;13.482;2023-07-28T03:43:45;10.00;99.90
46217;DHT22;47258;59.424;13.482;2023-07-28T03:46:14;10.00;99.90
46217;DHT22;47258;59.424;13.482;2023-07-28T03:48:41;10.00;99.90
46217;DHT22;47258;59.424;13.482;2023-07-28T03:51:08;10.00;99.90
46217;DHT22;47258;59.424;13.482;2023-07-28T03:53:35;10.00;99.90
46217;DHT22;47258;59.424;13.482;2023-07-28T03:56:03;10.00;99.90
46217;DHT22;47258;59.424;13.482;2023-07-28T03:58:30;10.00;99.90
46217;DHT22;47258;59.424;13.482;2023-07-28T04:00:57;10.00;99.90
46217;DHT22;47258;59.424;13.482;2023-07-28T04:03:25;10.00;99.90
46217;DHT22;47258;59.424;13.482;2023-07-28T04:05:52;10.00;99.90
46217;DHT22;47258;59.424;13.482;2023-07-28T04:08:19;10.00;99.90
46217;DHT22;47258;59.424;13.482;2023-07-28T04:10:46;10.00;99.90
46217;DHT22;47258;59.424;13.482;2023-07-28T04:13:13;10.10;99.90
46217;DHT22;47258;59.424;13.482;2023-07-28T04:15:41;10.10;99.90
46217;DHT22;47258;59.424;13.482;2023-07-28T04:18:08;10.20;99.90
46217;DHT22;47258;59.424;13.482;2023-07-28T04:20:36;10.20;99.90
46217;DHT22;47258;59.424;13.482;2023-07-28T04:23:03;10.20;99.90
46217;DHT22;47258;59.424;13.482;2023-07-28T04:25:30;10.20;99.90
46217;DHT22;47258;59.424;13.482;2023-07-28T04:27:57;10.30;99.90
46217;DHT22;47258;59.424;13.482;2023-07-28T04:30:24;10.30;99.90
46217;DHT22;47258;59.424;13.482;2023-07-28T04:32:51;10.40;99.90
46217;DHT22;47258;59.424;13.482;2023-07-28T04:35:18;10.30;99.90
46217;DHT22;47258;59.424;13.482;2023-07-28T04:37:47;10.30;99.90
46217;DHT22;47258;59.424;13.482;2023-07-28T04:40:14;10.30;99.90
46217;DHT22;47258;59.424;13.482;2023-07-28T04:42:41;10.30;99.90
46217;DHT22;47258;59.424;13.482;2023-07-28T04:45:09;10.30;99.90
46217;DHT22;47258;59.424;13.482;2023-07-28T04:47:36;10.40;99.90
46217;DHT22;47258;59.424;13.482;2023-07-28T04:50:04;10.50;99.90
46217;DHT22;47258;59.424;13.482;2023-07-28T04:52:31;10.50;99.90
46217;DHT22;47258;59.424;13.482;2023-07-28T04:54:59;10.60;99.90
46217;DHT22;47258;59.424;13.482;2023-07-28T04:57:26;10.70;99.90
46217;DHT22;47258;59.424;13.482;2023-07-28T04:59:53;10.80;99.90
46217;DHT22;47258;59.424;13.482;2023-07-28T05:02:20;10.80;99.90
46217;DHT22;47258;59.424;13.482;2023-07-28T05:04:47;10.90;99.90
46217;DHT22;47258;59.424;13.482;2023-07-28T05:07:14;11.00;99.90
46217;DHT22;47258;59.424;13.482;2023-07-28T05:09:42;11.00;99.90
46217;DHT22;47258;59.424;13.482;2023-07-28T05:12:11;11.10;99.90
46217;DHT22;47258;59.424;13.482;2023-07-28T05:14:38;11.10;99.90
46217;DHT22;47258;59.424;13.482;2023-07-28T05:17:06;11.20;99.90
46217;DHT22;47258;59.424;13.482;2023-07-28T05:19:33;11.20;99.90
46217;DHT22;47258;59.424;13.482;2023-07-28T05:22:00;11.30;99.90
46217;DHT22;47258;59.424;13.482;2023-07-28T05:24:27;11.30;99.90
46217;DHT22;47258;59.424;13.482;2023-07-28T05:26:54;11.40;99.90
46217;DHT22;47258;59.424;13.482;2023-07-28T05:29:22;11.40;99.90
46217;DHT22;47258;59.424;13.482;2023-07-28T05:31:49;11.50;99.90
46217;DHT22;47258;59.424;13.482;2023-07-28T05:34:16;11.60;99.90
46217;DHT22;47258;59.424;13.482;2023-07-28T05:36:44;11.70;99.90
46217;DHT22;47258;59.424;13.482;2023-07-28T05:39:11;11.80;99.90
46217;DHT22;47258;59.424;13.482;2023-07-28T05:41:38;11.90;99.90
46217;DHT22;47258;59.424;13.482;2023-07-28T05:44:05;12.00;99.90
46217;DHT22;47258;59.424;13.482;2023-07-28T05:46:34;12.10;99.90
46217;DHT22;47258;59.424;13.482;2023-07-28T05:49:01;12.20;99.90
46217;DHT22;47258;59.424;13.482;2023-07-28T05:51:28;12.30;99.90
46217;DHT22;47258;59.424;13.482;2023-07-28T05:53:55;12.40;99.90
46217;DHT22;47258;59.424;13.482;2023-07-28T05:56:22;12.50;99.90
46217;DHT22;47258;59.424;13.482;2023-07-28T05:58:50;12.60;99.90
46217;DHT22;47258;59.424;13.482;2023-07-28T06:01:17;12.80;99.90
46217;DHT22;47258;59.424;13.482;2023-07-28T06:03:46;12.90;99.90
46217;DHT22;47258;59.424;13.482;2023-07-28T06:06:13;12.90;99.90
46217;DHT22;47258;59.424;13.482;2023-07-28T06:08:40;12.90;99.90
46217;DHT22;47258;59.424;13.482;2023-07-28T06:11:07;13.00;99.90
46217;DHT22;47258;59.424;13.482;2023-07-28T06:13:35;13.10;99.90
46217;DHT22;47258;59.424;13.482;2023-07-28T06:16:02;13.20;99.90
46217;DHT22;47258;59.424;13.482;2023-07-28T06:18:29;13.30;99.90
46217;DHT22;47258;59.424;13.482;2023-07-28T06:20:58;13.30;99.90
46217;DHT22;47258;59.424;13.482;2023-07-28T06:23:25;13.40;99.90
46217;DHT22;47258;59.424;13.482;2023-07-28T06:25:53;13.60;99.90
46217;DHT22;47258;59.424;13.482;2023-07-28T06:28:20;13.70;99.90
46217;DHT22;47258;59.424;13.482;2023-07-28T06:33:17;15.50;99.90
46217;DHT22;47258;59.424;13.482;2023-07-28T06:35:44;13.60;99.90
46217;DHT22;47258;59.424;13.482;2023-07-28T06:40:39;14.10;99.90
46217;DHT22;47258;59.424;13.482;2023-07-28T06:43:06;14.10;99.90
46217;DHT22;47258;59.424;13.482;2023-07-28T06:45:34;14.20;99.90
46217;DHT22;47258;59.424;13.482;2023-07-28T06:48:01;14.20;99.90
46217;DHT22;47258;59.424;13.482;2023-07-28T06:50:28;14.20;99.90
46217;DHT22;47258;59.424;13.482;2023-07-28T06:52:55;14.30;99.90
46217;DHT22;47258;59.424;13.482;2023-07-28T06:55:23;14.30;99.90
46217;DHT22;47258;59.424;13.482;2023-07-28T06:57:50;14.40;99.90
46217;DHT22;47258;59.424;13.482;2023-07-28T07:00:18;14.40;99.90
46217;DHT22;47258;59.424;13.482;2023-07-28T07:02:45;14.40;99.90
46217;DHT22;47258;59.424;13.482;2023-07-28T07:05:12;14.50;99.90
46217;DHT22;47258;59.424;13.482;2023-07-28T07:07:40;14.60;99.90
46217;DHT22;47258;59.424;13.482;2023-07-28T07:10:08;14.70;99.90
46217;DHT22;47258;59.424;13.482;2023-07-28T07:12:36;14.70;99.90
46217;DHT22;47258;59.424;13.482;2023-07-28T07:15:04;14.70;99.90
46217;DHT22;47258;59.424;13.482;2023-07-28T07:17:33;14.70;99.90
46217;DHT22;47258;59.424;13.482;2023-07-28T07:20:00;14.70;99.90
46217;DHT22;47258;59.424;13.482;2023-07-28T07:22:27;14.70;99.90
46217;DHT22;47258;59.424;13.482;2023-07-28T07:24:54;14.70;99.90
46217;DHT22;47258;59.424;13.482;2023-07-28T07:27:24;14.70;99.90
46217;DHT22;47258;59.424;13.482;2023-07-28T07:29:52;14.80;99.90
46217;DHT22;47258;59.424;13.482;2023-07-28T07:32:19;14.90;99.90
46217;DHT22;47258;59.424;13.482;2023-07-28T07:34:47;14.90;99.90
46217;DHT22;47258;59.424;13.482;2023-07-28T07:37:14;14.90;99.90
46217;DHT22;47258;59.424;13.482;2023-07-28T07:39:41;15.00;99.90
46217;DHT22;47258;59.424;13.482;2023-07-28T07:42:10;15.00;99.90
46217;DHT22;47258;59.424;13.482;2023-07-28T07:44:39;15.10;99.90
46217;DHT22;47258;59.424;13.482;2023-07-28T07:47:13;15.10;99.90
46217;DHT22;47258;59.424;13.482;2023-07-28T07:49:41;15.30;99.90
46217;DHT22;47258;59.424;13.482;2023-07-28T07:52:08;15.40;99.90
46217;DHT22;47258;59.424;13.482;2023-07-28T07:54:36;15.50;99.90
46217;DHT22;47258;59.424;13.482;2023-07-28T07:57:03;15.60;99.90
46217;DHT22;47258;59.424;13.482;2023-07-28T07:59:30;15.70;99.90
46217;DHT22;47258;59.424;13.482;2023-07-28T08:01:59;15.70;99.90
46217;DHT22;47258;59.424;13.482;2023-07-28T08:04:30;15.80;99.90
46217;DHT22;47258;59.424;13.482;2023-07-28T08:06:57;15.90;99.90
46217;DHT22;47258;59.424;13.482;2023-07-28T08:09:24;15.90;99.90
46217;DHT22;47258;59.424;13.482;2023-07-28T08:11:51;16.20;99.90
46217;DHT22;47258;59.424;13.482;2023-07-28T08:14:19;16.10;99.90
46217;DHT22;47258;59.424;13.482;2023-07-28T08:16:46;16.10;99.90
46217;DHT22;47258;59.424;13.482;2023-07-28T08:19:13;16.30;99.90
46217;DHT22;47258;59.424;13.482;2023-07-28T08:21:42;16.40;99.90
46217;DHT22;47258;59.424;13.482;2023-07-28T08:24:10;16.50;99.90
46217;DHT22;47258;59.424;13.482;2023-07-28T08:26:37;16.70;99.90
46217;DHT22;47258;59.424;13.482;2023-07-28T08:29:12;16.70;99.90
46217;DHT22;47258;59.424;13.482;2023-07-28T08:31:39;16.80;99.90
46217;DHT22;47258;59.424;13.482;2023-07-28T08:34:07;16.90;99.90
46217;DHT22;47258;59.424;13.482;2023-07-28T08:36:34;17.10;99.90
46217;DHT22;47258;59.424;13.482;2023-07-28T08:39:02;17.10;99.90
46217;DHT22;47258;59.424;13.482;2023-07-28T08:41:29;17.20;99.90
46217;DHT22;47258;59.424;13.482;2023-07-28T08:43:56;17.30;99.90
46217;DHT22;47258;59.424;13.482;2023-07-28T08:46:24;17.30;99.90
46217;DHT22;47258;59.424;13.482;2023-07-28T08:48:51;17.40;99.90
46217;DHT22;47258;59.424;13.482;2023-07-28T08:51:19;17.50;99.90
46217;DHT22;47258;59.424;13.482;2023-07-28T08:53:48;17.70;99.90
46217;DHT22;47258;59.424;13.482;2023-07-28T08:56:15;17.70;99.90
46217;DHT22;47258;59.424;13.482;2023-07-28T08:58:42;17.70;99.90
46217;DHT22;47258;59.424;13.482;2023-07-28T09:01:10;17.80;99.90
46217;DHT22;47258;59.424;13.482;2023-07-28T09:03:40;17.90;99.90
46217;DHT22;47258;59.424;13.482;2023-07-28T09:06:09;18.00;99.90
46217;DHT22;47258;59.424;13.482;2023-07-28T09:08:36;18.20;99.90
46217;DHT22;47258;59.424;13.482;2023-07-28T09:11:04;18.30;99.90
46217;DHT22;47258;59.424;13.482;2023-07-28T09:13:36;18.40;99.90
46217;DHT22;47258;59.424;13.482;2023-07-28T09:16:05;18.50;99.90
46217;DHT22;47258;59.424;13.482;2023-07-28T09:18:32;18.30;99.90
46217;DHT22;47258;59.424;13.482;2023-07-28T09:21:00;18.30;99.90
46217;DHT22;47258;59.424;13.482;2023-07-28T09:23:28;18.30;99.90
46217;DHT22;47258;59.424;13.482;2023-07-28T09:25:59;18.40;99.90
46217;DHT22;47258;59.424;13.482;2023-07-28T09:28:36;18.60;99.90
46217;DHT22;47258;59.424;13.482;2023-07-28T09:31:05;18.70;99.90
46217;DHT22;47258;59.424;13.482;2023-07-28T09:33:34;18.90;99.90
46217;DHT22;47258;59.424;13.482;2023-07-28T09:36:09;19.10;99.90
46217;DHT22;47258;59.424;13.482;2023-07-28T09:38:38;19.20;99.90
46217;DHT22;47258;59.424;13.482;2023-07-28T09:41:08;19.40;99.90
46217;DHT22;47258;59.424;13.482;2023-07-28T09:43:36;19.70;99.90
46217;DHT22;47258;59.424;13.482;2023-07-28T09:46:04;20.00;99.90
46217;DHT22;47258;59.424;13.482;2023-07-28T09:48:33;20.20;99.90
46217;DHT22;47258;59.424;13.482;2023-07-28T09:51:04;20.00;99.90
46217;DHT22;47258;59.424;13.482;2023-07-28T09:53:37;19.90;99.90
46217;DHT22;47258;59.424;13.482;2023-07-28T09:56:08;19.60;99.90
46217;DHT22;47258;59.424;13.482;2023-07-28T09:58:38;19.80;99.90
46217;DHT22;47258;59.424;13.482;2023-07-28T10:01:08;19.90;99.90
46217;DHT22;47258;59.424;13.482;2023-07-28T10:03:37;20.20;99.90
46217;DHT22;47258;59.424;13.482;2023-07-28T10:06:04;20.50;99.90
46217;DHT22;47258;59.424;13.482;2023-07-28T10:08:33;20.70;99.90
46217;DHT22;47258;59.424;13.482;2023-07-28T10:11:01;21.00;99.90
46217;DHT22;47258;59.424;13.482;2023-07-28T10:13:39;21.00;99.90
46217;DHT22;47258;59.424;13.482;2023-07-28T10:16:06;21.30;99.90
46217;DHT22;47258;59.424;13.482;2023-07-28T10:18:35;21.20;99.90
46217;DHT22;47258;59.424;13.482;2023-07-28T10:21:05;21.30;99.90
46217;DHT22;47258;59.424;13.482;2023-07-28T10:23:35;21.30;99.90
46217;DHT22;47258;59.424;13.482;2023-07-28T10:26:03;21.20;99.90
46217;DHT22;47258;59.424;13.482;2023-07-28T10:28:33;21.00;99.90
46217;DHT22;47258;59.424;13.482;2023-07-28T10:31:05;20.70;99.90
46217;DHT22;47258;59.424;13.482;2023-07-28T10:33:33;20.50;99.90
46217;DHT22;47258;59.424;13.482;2023-07-28T10:36:12;20.50;99.90
46217;DHT22;47258;59.424;13.482;2023-07-28T10:38:41;20.50;99.90
46217;DHT22;47258;59.424;13.482;2023-07-28T10:41:14;20.40;99.90
46217;DHT22;47258;59.424;13.482;2023-07-28T10:43:42;20.50;99.90
46217;DHT22;47258;59.424;13.482;2023-07-28T10:46:10;20.70;99.90
46217;DHT22;47258;59.424;13.482;2023-07-28T10:48:42;20.90;99.90
46217;DHT22;47258;59.424;13.482;2023-07-28T10:51:09;21.20;99.90
46217;DHT22;47258;59.424;13.482;2023-07-28T10:53:39;21.30;99.90
46217;DHT22;47258;59.424;13.482;2023-07-28T10:56:06;21.30;99.90
46217;DHT22;47258;59.424;13.482;2023-07-28T10:58:36;21.40;99.90
46217;DHT22;47258;59.424;13.482;2023-07-28T11:01:03;21.50;99.90
46217;DHT22;47258;59.424;13.482;2023-07-28T11:03:30;21.60;99.90
46217;DHT22;47258;59.424;13.482;2023-07-28T11:05:57;21.60;99.90
46217;DHT22;47258;59.424;13.482;2023-07-28T11:08:25;21.70;99.90
46217;DHT22;47258;59.424;13.482;2023-07-28T11:10:53;21.90;99.90
46217;DHT22;47258;59.424;13.482;2023-07-28T11:13:22;22.00;99.90
46217;DHT22;47258;59.424;13.482;2023-07-28T11:15:51;22.20;99.90
46217;DHT22;47258;59.424;13.482;2023-07-28T11:18:18;22.30;99.90
46217;DHT22;47258;59.424;13.482;2023-07-28T11:20:45;22.30;99.90
46217;DHT22;47258;59.424;13.482;2023-07-28T11:23:14;22.40;99.90
46217;DHT22;47258;59.424;13.482;2023-07-28T11:25:42;22.50;99.90
46217;DHT22;47258;59.424;13.482;2023-07-28T11:28:11;22.60;99.90
46217;DHT22;47258;59.424;13.482;2023-07-28T11:30:39;22.50;99.90
46217;DHT22;47258;59.424;13.482;2023-07-28T11:33:09;22.60;99.90
46217;DHT22;47258;59.424;13.482;2023-07-28T11:35:38;22.50;99.90
46217;DHT22;47258;59.424;13.482;2023-07-28T11:38:07;22.40;99.90
46217;DHT22;47258;59.424;13.482;2023-07-28T11:40:35;22.50;99.90
46217;DHT22;47258;59.424;13.482;2023-07-28T11:43:03;22.60;99.90
46217;DHT22;47258;59.424;13.482;2023-07-28T11:45:31;22.70;99.90
46217;DHT22;47258;59.424;13.482;2023-07-28T11:48:01;22.80;99.90
46217;DHT22;47258;59.424;13.482;2023-07-28T11:50:30;22.80;99.90
46217;DHT22;47258;59.424;13.482;2023-07-28T11:53:00;22.90;99.90
46217;DHT22;47258;59.424;13.482;2023-07-28T11:55:29;23.00;99.90
46217;DHT22;47258;59.424;13.482;2023-07-28T11:57:56;22.90;99.90
46217;DHT22;47258;59.424;13.482;2023-07-28T12:00:31;22.80;99.90
46217;DHT22;47258;59.424;13.482;2023-07-28T12:03:05;22.70;99.90
46217;DHT22;47258;59.424;13.482;2023-07-28T12:05:35;22.40;99.90
46217;DHT22;47258;59.424;13.482;2023-07-28T12:08:03;22.30;99.90
46217;DHT22;47258;59.424;13.482;2023-07-28T12:10:31;22.30;99.90
46217;DHT22;47258;59.424;13.482;2023-07-28T12:13:03;22.30;99.90
46217;DHT22;47258;59.424;13.482;2023-07-28T12:15:32;22.30;99.90
46217;DHT22;47258;59.424;13.482;2023-07-28T12:18:03;22.10;99.90
46217;DHT22;47258;59.424;13.482;2023-07-28T12:20:33;21.90;99.90
46217;DHT22;47258;59.424;13.482;2023-07-28T12:23:01;21.80;99.90
46217;DHT22;47258;59.424;13.482;2023-07-28T12:25:29;21.70;99.90
46217;DHT22;47258;59.424;13.482;2023-07-28T12:27:56;21.60;99.90
46217;DHT22;47258;59.424;13.482;2023-07-28T12:30:23;21.60;99.90
46217;DHT22;47258;59.424;13.482;2023-07-28T12:32:52;21.70;99.90
46217;DHT22;47258;59.424;13.482;2023-07-28T12:35:19;21.80;99.90
46217;DHT22;47258;59.424;13.482;2023-07-28T12:37:49;21.90;99.90
46217;DHT22;47258;59.424;13.482;2023-07-28T12:40:17;22.00;99.90
46217;DHT22;47258;59.424;13.482;2023-07-28T12:42:44;22.10;99.90
46217;DHT22;47258;59.424;13.482;2023-07-28T12:45:12;22.00;99.90
46217;DHT22;47258;59.424;13.482;2023-07-28T12:47:40;21.90;99.90
46217;DHT22;47258;59.424;13.482;2023-07-28T12:50:09;21.70;99.90
46217;DHT22;47258;59.424;13.482;2023-07-28T12:52:36;21.60;99.90
46217;DHT22;47258;59.424;13.482;2023-07-28T12:55:04;21.60;99.90
46217;DHT22;47258;59.424;13.482;2023-07-28T12:57:32;21.60;99.90
46217;DHT22;47258;59.424;13.482;2023-07-28T12:59:59;21.70;99.90
46217;DHT22;47258;59.424;13.482;2023-07-28T13:02:26;21.70;99.90
46217;DHT22;47258;59.424;13.482;2023-07-28T13:04:53;21.80;99.90
46217;DHT22;47258;59.424;13.482;2023-07-28T13:07:21;21.90;99.90
46217;DHT22;47258;59.424;13.482;2023-07-28T13:09:49;22.00;99.90
46217;DHT22;47258;59.424;13.482;2023-07-28T13:12:16;22.00;99.90
46217;DHT22;47258;59.424;13.482;2023-07-28T13:14:43;22.10;99.90
46217;DHT22;47258;59.424;13.482;2023-07-28T13:17:10;22.30;99.90
46217;DHT22;47258;59.424;13.482;2023-07-28T13:19:38;22.40;99.90
46217;DHT22;47258;59.424;13.482;2023-07-28T13:22:05;22.50;99.90
46217;DHT22;47258;59.424;13.482;2023-07-28T13:24:34;22.50;99.90
46217;DHT22;47258;59.424;13.482;2023-07-28T13:27:01;22.50;99.90
46217;DHT22;47258;59.424;13.482;2023-07-28T13:29:28;22.50;99.90
46217;DHT22;47258;59.424;13.482;2023-07-28T13:31:58;22.50;99.90
46217;DHT22;47258;59.424;13.482;2023-07-28T13:34:25;22.40;99.90
46217;DHT22;47258;59.424;13.482;2023-07-28T13:36:52;22.40;99.90
46217;DHT22;47258;59.424;13.482;2023-07-28T13:39:19;22.40;99.90
46217;DHT22;47258;59.424;13.482;2023-07-28T13:41:48;22.40;99.90
46217;DHT22;47258;59.424;13.482;2023-07-28T13:44:15;22.30;99.90
46217;DHT22;47258;59.424;13.482;2023-07-28T13:46:42;22.20;99.90
46217;DHT22;47258;59.424;13.482;2023-07-28T13:49:09;22.10;99.90
46217;DHT22;47258;59.424;13.482;2023-07-28T13:51:36;22.10;99.90
46217;DHT22;47258;59.424;13.482;2023-07-28T13:54:04;22.10;99.90
46217;DHT22;47258;59.424;13.482;2023-07-28T13:56:31;22.20;99.90
46217;DHT22;47258;59.424;13.482;2023-07-28T13:58:59;22.40;99.90
46217;DHT22;47258;59.424;13.482;2023-07-28T14:01:26;22.50;99.90
46217;DHT22;47258;59.424;13.482;2023-07-28T14:03:53;22.60;99.90
46217;DHT22;47258;59.424;13.482;2023-07-28T14:06:20;22.80;99.90
46217;DHT22;47258;59.424;13.482;2023-07-28T14:08:47;23.00;99.90
46217;DHT22;47258;59.424;13.482;2023-07-28T14:11:14;23.00;99.90
46217;DHT22;47258;59.424;13.482;2023-07-28T14:13:42;23.10;99.90
46217;DHT22;47258;59.424;13.482;2023-07-28T14:16:10;23.30;99.90
46217;DHT22;47258;59.424;13.482;2023-07-28T14:18:38;23.40;99.90
46217;DHT22;47258;59.424;13.482;2023-07-28T14:21:06;23.40;99.90
46217;DHT22;47258;59.424;13.482;2023-07-28T14:23:35;23.50;99.90
46217;DHT22;47258;59.424;13.482;2023-07-28T14:26:02;23.50;99.90
46217;DHT22;47258;59.424;13.482;2023-07-28T14:28:29;23.40;99.90
46217;DHT22;47258;59.424;13.482;2023-07-28T14:30:56;23.40;99.90
46217;DHT22;47258;59.424;13.482;2023-07-28T14:33:25;23.50;99.90
46217;DHT22;47258;59.424;13.482;2023-07-28T14:35:52;23.60;99.90
46217;DHT22;47258;59.424;13.482;2023-07-28T14:38:19;23.70;99.90
46217;DHT22;47258;59.424;13.482;2023-07-28T14:40:46;23.80;99.90
46217;DHT22;47258;59.424;13.482;2023-07-28T14:43:14;23.80;99.90
46217;DHT22;47258;59.424;13.482;2023-07-28T14:45:42;23.80;99.90
46217;DHT22;47258;59.424;13.482;2023-07-28T14:48:09;23.80;99.90
46217;DHT22;47258;59.424;13.482;2023-07-28T14:50:37;23.80;99.90
46217;DHT22;47258;59.424;13.482;2023-07-28T14:53:28;23.80;99.90
46217;DHT22;47258;59.424;13.482;2023-07-28T14:55:55;23.50;99.90
46217;DHT22;47258;59.424;13.482;2023-07-28T14:58:23;23.30;99.90
46217;DHT22;47258;59.424;13.482;2023-07-28T15:00:50;23.20;99.90
46217;DHT22;47258;59.424;13.482;2023-07-28T15:03:17;23.30;99.90
46217;DHT22;47258;59.424;13.482;2023-07-28T15:05:45;23.50;99.90
46217;DHT22;47258;59.424;13.482;2023-07-28T15:08:13;23.50;99.90
46217;DHT22;47258;59.424;13.482;2023-07-28T15:10:41;23.40;99.90
46217;DHT22;47258;59.424;13.482;2023-07-28T15:13:09;23.40;99.90
46217;DHT22;47258;59.424;13.482;2023-07-28T15:15:36;23.70;99.90
46217;DHT22;47258;59.424;13.482;2023-07-28T15:18:03;23.90;99.90
46217;DHT22;47258;59.424;13.482;2023-07-28T15:20:30;23.80;99.90
46217;DHT22;47258;59.424;13.482;2023-07-28T15:22:59;23.70;99.90
46217;DHT22;47258;59.424;13.482;2023-07-28T15:25:26;23.80;99.90
46217;DHT22;47258;59.424;13.482;2023-07-28T15:27:53;23.60;99.90